sensor_id;sensor_type;location;lat;lon;timestamp;temperature;humidity
38582;DHT22;24349;53.720;10.014;2022-11-21T00:00:27;-0.90;99.90
38582;DHT22;24349;53.720;10.014;2022-11-21T00:02:53;-0.80;99.90
38582;DHT22;24349;53.720;10.014;2022-11-21T00:05:21;-0.90;99.90
38582;DHT22;24349;53.720;10.014;2022-11-21T00:07:47;-0.90;99.90
38582;DHT22;24349;53.720;10.014;2022-11-21T00:10:14;-0.90;99.90
38582;DHT22;24349;53.720;10.014;2022-11-21T00:12:40;-0.90;99.90
38582;DHT22;24349;53.720;10.014;2022-11-21T00:15:06;-1.00;99.90
38582;DHT22;24349;53.720;10.014;2022-11-21T00:17:31;-1.00;99.90
38582;DHT22;24349;53.720;10.014;2022-11-21T00:19:57;-1.10;99.90
38582;DHT22;24349;53.720;10.014;2022-11-21T00:22:23;-1.20;99.90
38582;DHT22;24349;53.720;10.014;2022-11-21T00:24:48;-1.20;99.90
38582;DHT22;24349;53.720;10.014;2022-11-21T00:27:14;-1.20;99.90
38582;DHT22;24349;53.720;10.014;2022-11-21T00:29:39;-1.20;99.90
38582;DHT22;24349;53.720;10.014;2022-11-21T00:32:05;-1.20;99.90
38582;DHT22;24349;53.720;10.014;2022-11-21T00:34:31;-1.20;99.90
38582;DHT22;24349;53.720;10.014;2022-11-21T00:36:57;-1.20;99.90
38582;DHT22;24349;53.720;10.014;2022-11-21T00:39:23;-1.20;99.90
38582;DHT22;24349;53.720;10.014;2022-11-21T00:41:49;-1.30;99.90
38582;DHT22;24349;53.720;10.014;2022-11-21T00:44:14;-1.40;99.90
38582;DHT22;24349;53.720;10.014;2022-11-21T00:46:40;-1.40;99.90
38582;DHT22;24349;53.720;10.014;2022-11-21T00:49:05;-1.40;99.90
38582;DHT22;24349;53.720;10.014;2022-11-21T00:51:31;-1.40;99.90
38582;DHT22;24349;53.720;10.014;2022-11-21T00:53:56;-1.40;99.90
38582;DHT22;24349;53.720;10.014;2022-11-21T00:56:22;-1.40;99.90
38582;DHT22;24349;53.720;10.014;2022-11-21T00:58:48;-1.50;99.90
38582;DHT22;24349;53.720;10.014;2022-11-21T01:01:14;-1.60;99.90
38582;DHT22;24349;53.720;10.014;2022-11-21T01:03:40;-1.50;99.90
38582;DHT22;24349;53.720;10.014;2022-11-21T01:06:11;-1.60;99.90
38582;DHT22;24349;53.720;10.014;2022-11-21T01:08:39;-1.50;99.90
38582;DHT22;24349;53.720;10.014;2022-11-21T01:11:08;-1.50;99.90
38582;DHT22;24349;53.720;10.014;2022-11-21T01:13:34;-1.50;99.90
38582;DHT22;24349;53.720;10.014;2022-11-21T01:16:15;-1.40;99.90
38582;DHT22;24349;53.720;10.014;2022-11-21T01:18:41;-1.40;99.90
38582;DHT22;24349;53.720;10.014;2022-11-21T01:21:13;-1.30;99.90
38582;DHT22;24349;53.720;10.014;2022-11-21T01:23:39;-1.30;99.90
38582;DHT22;24349;53.720;10.014;2022-11-21T01:26:06;-1.30;99.90
38582;DHT22;24349;53.720;10.014;2022-11-21T01:28:32;-1.30;99.90
38582;DHT22;24349;53.720;10.014;2022-11-21T01:31:10;-1.30;99.90
38582;DHT22;24349;53.720;10.014;2022-11-21T01:33:36;-1.30;99.90
38582;DHT22;24349;53.720;10.014;2022-11-21T01:38:47;-1.20;99.90
38582;DHT22;24349;53.720;10.014;2022-11-21T01:41:15;-1.20;99.90
38582;DHT22;24349;53.720;10.014;2022-11-21T01:43:41;-1.20;99.90
38582;DHT22;24349;53.720;10.014;2022-11-21T01:49:02;-1.10;99.90
38582;DHT22;24349;53.720;10.014;2022-11-21T01:56:51;-1.10;99.90
38582;DHT22;24349;53.720;10.014;2022-11-21T01:59:29;-1.10;99.90
38582;DHT22;24349;53.720;10.014;2022-11-21T02:01:56;-1.20;99.90
38582;DHT22;24349;53.720;10.014;2022-11-21T02:04:27;-1.20;99.90
38582;DHT22;24349;53.720;10.014;2022-11-21T02:06:55;-1.20;99.90
38582;DHT22;24349;53.720;10.014;2022-11-21T02:09:21;-1.20;99.90
38582;DHT22;24349;53.720;10.014;2022-11-21T02:11:54;-1.20;99.90
38582;DHT22;24349;53.720;10.014;2022-11-21T02:14:21;-1.10;99.90
38582;DHT22;24349;53.720;10.014;2022-11-21T02:16:46;-1.10;99.90
38582;DHT22;24349;53.720;10.014;2022-11-21T02:19:23;-1.10;99.90
38582;DHT22;24349;53.720;10.014;2022-11-21T02:21:58;-1.10;99.90
38582;DHT22;24349;53.720;10.014;2022-11-21T02:24:42;-1.10;99.90
38582;DHT22;24349;53.720;10.014;2022-11-21T02:27:10;-1.00;99.90
38582;DHT22;24349;53.720;10.014;2022-11-21T02:29:36;-1.10;99.90
38582;DHT22;24349;53.720;10.014;2022-11-21T02:32:03;-1.10;99.90
38582;DHT22;24349;53.720;10.014;2022-11-21T02:34:32;-1.10;99.90
38582;DHT22;24349;53.720;10.014;2022-11-21T02:36:58;-1.20;99.90
38582;DHT22;24349;53.720;10.014;2022-11-21T02:39:34;-1.10;99.90
38582;DHT22;24349;53.720;10.014;2022-11-21T02:44:55;-1.10;99.90
38582;DHT22;24349;53.720;10.014;2022-11-21T02:47:22;-1.10;99.90
38582;DHT22;24349;53.720;10.014;2022-11-21T02:49:54;-1.10;99.90
38582;DHT22;24349;53.720;10.014;2022-11-21T02:52:21;-1.10;99.90
38582;DHT22;24349;53.720;10.014;2022-11-21T02:54:47;-1.10;99.90
38582;DHT22;24349;53.720;10.014;2022-11-21T02:57:12;-1.10;99.90
38582;DHT22;24349;53.720;10.014;2022-11-21T02:59:38;-1.10;99.90
38582;DHT22;24349;53.720;10.014;2022-11-21T03:02:04;-1.10;99.90
38582;DHT22;24349;53.720;10.014;2022-11-21T03:04:29;-1.20;99.90
38582;DHT22;24349;53.720;10.014;2022-11-21T03:06:55;-1.30;99.90
38582;DHT22;24349;53.720;10.014;2022-11-21T03:09:20;-1.40;99.90
38582;DHT22;24349;53.720;10.014;2022-11-21T03:11:46;-1.40;99.90
38582;DHT22;24349;53.720;10.014;2022-11-21T03:14:12;-1.50;99.90
38582;DHT22;24349;53.720;10.014;2022-11-21T03:16:37;-1.50;99.90
38582;DHT22;24349;53.720;10.014;2022-11-21T03:19:03;-1.50;99.90
38582;DHT22;24349;53.720;10.014;2022-11-21T03:21:28;-1.50;99.90
38582;DHT22;24349;53.720;10.014;2022-11-21T03:23:54;-1.50;99.90
38582;DHT22;24349;53.720;10.014;2022-11-21T03:26:19;-1.50;99.90
38582;DHT22;24349;53.720;10.014;2022-11-21T03:28:45;-1.60;99.90
38582;DHT22;24349;53.720;10.014;2022-11-21T03:31:11;-1.70;99.90
38582;DHT22;24349;53.720;10.014;2022-11-21T03:33:36;-1.70;99.90
38582;DHT22;24349;53.720;10.014;2022-11-21T03:36:02;-1.60;99.90
38582;DHT22;24349;53.720;10.014;2022-11-21T03:38:28;-1.60;99.90
38582;DHT22;24349;53.720;10.014;2022-11-21T03:40:53;-1.60;99.90
38582;DHT22;24349;53.720;10.014;2022-11-21T03:43:19;-1.60;99.90
38582;DHT22;24349;53.720;10.014;2022-11-21T03:45:45;-1.60;99.90
38582;DHT22;24349;53.720;10.014;2022-11-21T03:48:13;-1.50;99.90
38582;DHT22;24349;53.720;10.014;2022-11-21T03:50:41;-1.50;99.90
38582;DHT22;24349;53.720;10.014;2022-11-21T03:53:07;-1.60;99.90
38582;DHT22;24349;53.720;10.014;2022-11-21T03:55:33;-1.60;99.90
38582;DHT22;24349;53.720;10.014;2022-11-21T03:57:58;-1.60;99.90
38582;DHT22;24349;53.720;10.014;2022-11-21T04:00:24;-1.60;99.90
38582;DHT22;24349;53.720;10.014;2022-11-21T04:02:50;-1.70;99.90
38582;DHT22;24349;53.720;10.014;2022-11-21T04:05:15;-1.70;99.90
38582;DHT22;24349;53.720;10.014;2022-11-21T04:07:41;-1.70;99.90
38582;DHT22;24349;53.720;10.014;2022-11-21T04:10:07;-1.80;99.90
38582;DHT22;24349;53.720;10.014;2022-11-21T04:12:32;-1.80;99.90
38582;DHT22;24349;53.720;10.014;2022-11-21T04:14:58;-1.80;99.90
38582;DHT22;24349;53.720;10.014;2022-11-21T04:17:24;-1.80;99.90
38582;DHT22;24349;53.720;10.014;2022-11-21T04:19:49;-1.80;99.90
38582;DHT22;24349;53.720;10.014;2022-11-21T04:22:15;-1.80;99.90
38582;DHT22;24349;53.720;10.014;2022-11-21T04:24:40;-1.80;99.90
38582;DHT22;24349;53.720;10.014;2022-11-21T04:27:06;-1.80;99.90
38582;DHT22;24349;53.720;10.014;2022-11-21T04:29:32;-1.80;99.90
38582;DHT22;24349;53.720;10.014;2022-11-21T04:31:57;-1.90;99.90
38582;DHT22;24349;53.720;10.014;2022-11-21T04:34:23;-1.90;99.90
38582;DHT22;24349;53.720;10.014;2022-11-21T04:36:48;-2.00;99.90
38582;DHT22;24349;53.720;10.014;2022-11-21T04:39:14;-2.00;99.90
38582;DHT22;24349;53.720;10.014;2022-11-21T04:41:39;-2.00;99.90
38582;DHT22;24349;53.720;10.014;2022-11-21T04:44:05;-2.10;99.90
38582;DHT22;24349;53.720;10.014;2022-11-21T04:46:31;-2.00;99.90
38582;DHT22;24349;53.720;10.014;2022-11-21T04:48:56;-2.00;99.90
38582;DHT22;24349;53.720;10.014;2022-11-21T04:51:22;-2.00;99.90
38582;DHT22;24349;53.720;10.014;2022-11-21T04:53:47;-2.00;99.90
38582;DHT22;24349;53.720;10.014;2022-11-21T04:56:13;-2.00;99.90
38582;DHT22;24349;53.720;10.014;2022-11-21T04:58:41;-2.00;99.90
38582;DHT22;24349;53.720;10.014;2022-11-21T05:01:08;-2.00;99.90
38582;DHT22;24349;53.720;10.014;2022-11-21T05:03:34;-2.00;99.90
38582;DHT22;24349;53.720;10.014;2022-11-21T05:06:00;-2.00;99.90
38582;DHT22;24349;53.720;10.014;2022-11-21T05:08:25;-2.10;99.90
38582;DHT22;24349;53.720;10.014;2022-11-21T05:10:51;-2.00;99.90
38582;DHT22;24349;53.720;10.014;2022-11-21T05:13:35;-2.10;99.90
38582;DHT22;24349;53.720;10.014;2022-11-21T05:16:00;-2.20;99.90
38582;DHT22;24349;53.720;10.014;2022-11-21T05:18:26;-2.30;99.90
38582;DHT22;24349;53.720;10.014;2022-11-21T05:20:52;-2.40;99.90
38582;DHT22;24349;53.720;10.014;2022-11-21T05:23:17;-2.50;99.90
38582;DHT22;24349;53.720;10.014;2022-11-21T05:25:43;-2.50;99.90
38582;DHT22;24349;53.720;10.014;2022-11-21T05:28:09;-2.50;99.90
38582;DHT22;24349;53.720;10.014;2022-11-21T05:30:34;-2.60;99.90
38582;DHT22;24349;53.720;10.014;2022-11-21T05:33:01;-2.50;99.90
38582;DHT22;24349;53.720;10.014;2022-11-21T05:35:27;-2.50;99.90
38582;DHT22;24349;53.720;10.014;2022-11-21T05:37:57;-2.50;99.90
38582;DHT22;24349;53.720;10.014;2022-11-21T05:40:23;-2.60;99.90
38582;DHT22;24349;53.720;10.014;2022-11-21T05:42:49;-2.60;99.90
38582;DHT22;24349;53.720;10.014;2022-11-21T05:45:34;-2.60;99.90
38582;DHT22;24349;53.720;10.014;2022-11-21T05:47:59;-2.60;99.90
38582;DHT22;24349;53.720;10.014;2022-11-21T05:50:25;-2.60;99.90
38582;DHT22;24349;53.720;10.014;2022-11-21T05:52:50;-2.60;99.90
38582;DHT22;24349;53.720;10.014;2022-11-21T05:55:16;-2.60;99.90
38582;DHT22;24349;53.720;10.014;2022-11-21T05:57:42;-2.60;99.90
38582;DHT22;24349;53.720;10.014;2022-11-21T06:00:08;-2.50;99.90
38582;DHT22;24349;53.720;10.014;2022-11-21T06:02:33;-2.50;99.90
38582;DHT22;24349;53.720;10.014;2022-11-21T06:05:17;-2.40;99.90
38582;DHT22;24349;53.720;10.014;2022-11-21T06:07:43;-2.40;99.90
38582;DHT22;24349;53.720;10.014;2022-11-21T06:10:09;-2.50;99.90
38582;DHT22;24349;53.720;10.014;2022-11-21T06:12:34;-2.50;99.90
38582;DHT22;24349;53.720;10.014;2022-11-21T06:15:00;-2.50;99.90
38582;DHT22;24349;53.720;10.014;2022-11-21T06:17:25;-2.40;99.90
38582;DHT22;24349;53.720;10.014;2022-11-21T06:19:51;-2.40;99.90
38582;DHT22;24349;53.720;10.014;2022-11-21T06:22:17;-2.40;99.90
38582;DHT22;24349;53.720;10.014;2022-11-21T06:24:42;-2.30;99.90
38582;DHT22;24349;53.720;10.014;2022-11-21T06:27:08;-2.30;99.90
38582;DHT22;24349;53.720;10.014;2022-11-21T06:29:34;-2.20;99.90
38582;DHT22;24349;53.720;10.014;2022-11-21T06:31:59;-2.20;99.90
38582;DHT22;24349;53.720;10.014;2022-11-21T06:34:25;-2.10;99.90
38582;DHT22;24349;53.720;10.014;2022-11-21T06:36:51;-2.10;99.90
38582;DHT22;24349;53.720;10.014;2022-11-21T06:39:17;-2.10;99.90
38582;DHT22;24349;53.720;10.014;2022-11-21T06:41:42;-2.10;99.90
38582;DHT22;24349;53.720;10.014;2022-11-21T06:44:18;-2.10;99.90
38582;DHT22;24349;53.720;10.014;2022-11-21T06:46:46;-2.00;99.90
38582;DHT22;24349;53.720;10.014;2022-11-21T06:49:12;-1.90;99.90
38582;DHT22;24349;53.720;10.014;2022-11-21T06:51:39;-1.70;99.90
38582;DHT22;24349;53.720;10.014;2022-11-21T06:54:05;-1.70;99.90
38582;DHT22;24349;53.720;10.014;2022-11-21T06:56:31;-1.90;99.90
38582;DHT22;24349;53.720;10.014;2022-11-21T06:58:57;-1.80;99.90
38582;DHT22;24349;53.720;10.014;2022-11-21T07:01:23;-1.90;99.90
38582;DHT22;24349;53.720;10.014;2022-11-21T07:03:49;-1.90;99.90
38582;DHT22;24349;53.720;10.014;2022-11-21T07:06:15;-2.00;99.90
38582;DHT22;24349;53.720;10.014;2022-11-21T07:08:41;-2.10;99.90
38582;DHT22;24349;53.720;10.014;2022-11-21T07:11:08;-2.20;99.90
38582;DHT22;24349;53.720;10.014;2022-11-21T07:13:34;-2.20;99.90
38582;DHT22;24349;53.720;10.014;2022-11-21T07:16:05;-2.20;99.90
38582;DHT22;24349;53.720;10.014;2022-11-21T07:18:31;-2.20;99.90
38582;DHT22;24349;53.720;10.014;2022-11-21T07:20:58;-2.10;99.90
38582;DHT22;24349;53.720;10.014;2022-11-21T07:23:24;-1.70;99.90
38582;DHT22;24349;53.720;10.014;2022-11-21T07:25:50;-1.30;99.90
38582;DHT22;24349;53.720;10.014;2022-11-21T07:28:16;-1.10;99.90
38582;DHT22;24349;53.720;10.014;2022-11-21T07:30:41;-1.20;99.90
38582;DHT22;24349;53.720;10.014;2022-11-21T07:33:07;-1.10;99.90
38582;DHT22;24349;53.720;10.014;2022-11-21T07:35:34;-0.80;99.90
38582;DHT22;24349;53.720;10.014;2022-11-21T07:38:01;-0.50;99.90
38582;DHT22;24349;53.720;10.014;2022-11-21T07:40:27;-0.60;99.90
38582;DHT22;24349;53.720;10.014;2022-11-21T07:42:53;-0.50;99.90
38582;DHT22;24349;53.720;10.014;2022-11-21T07:45:19;0.00;99.90
38582;DHT22;24349;53.720;10.014;2022-11-21T07:47:45;0.60;99.90
38582;DHT22;24349;53.720;10.014;2022-11-21T07:50:11;0.90;99.90
38582;DHT22;24349;53.720;10.014;2022-11-21T07:52:37;1.20;99.90
38582;DHT22;24349;53.720;10.014;2022-11-21T07:55:04;1.50;99.90
38582;DHT22;24349;53.720;10.014;2022-11-21T07:57:30;2.00;99.90
38582;DHT22;24349;53.720;10.014;2022-11-21T07:59:56;2.50;99.90
38582;DHT22;24349;53.720;10.014;2022-11-21T08:02:26;3.00;99.90
38582;DHT22;24349;53.720;10.014;2022-11-21T08:04:53;3.40;99.90
38582;DHT22;24349;53.720;10.014;2022-11-21T08:07:20;3.70;99.90
38582;DHT22;24349;53.720;10.014;2022-11-21T08:09:47;4.10;99.90
38582;DHT22;24349;53.720;10.014;2022-11-21T08:12:13;4.70;99.90
38582;DHT22;24349;53.720;10.014;2022-11-21T08:14:39;5.00;99.90
38582;DHT22;24349;53.720;10.014;2022-11-21T08:17:05;5.20;99.90
38582;DHT22;24349;53.720;10.014;2022-11-21T08:19:32;5.00;99.90
38582;DHT22;24349;53.720;10.014;2022-11-21T08:21:57;4.70;99.90
38582;DHT22;24349;53.720;10.014;2022-11-21T08:24:23;4.20;99.90
38582;DHT22;24349;53.720;10.014;2022-11-21T08:26:51;4.30;99.90
38582;DHT22;24349;53.720;10.014;2022-11-21T08:29:17;3.90;99.90
38582;DHT22;24349;53.720;10.014;2022-11-21T08:31:43;3.50;99.90
38582;DHT22;24349;53.720;10.014;2022-11-21T08:34:10;2.80;99.90
38582;DHT22;24349;53.720;10.014;2022-11-21T08:36:36;2.70;99.90
38582;DHT22;24349;53.720;10.014;2022-11-21T08:39:02;2.30;99.90
38582;DHT22;24349;53.720;10.014;2022-11-21T08:41:31;2.20;99.90
38582;DHT22;24349;53.720;10.014;2022-11-21T08:44:15;1.90;99.90
38582;DHT22;24349;53.720;10.014;2022-11-21T08:46:41;1.30;99.90
38582;DHT22;24349;53.720;10.014;2022-11-21T08:49:07;1.00;99.90
38582;DHT22;24349;53.720;10.014;2022-11-21T08:51:34;0.80;99.90
38582;DHT22;24349;53.720;10.014;2022-11-21T08:54:00;0.60;99.90
38582;DHT22;24349;53.720;10.014;2022-11-21T08:56:26;1.00;99.90
38582;DHT22;24349;53.720;10.014;2022-11-21T08:58:52;1.60;99.90
38582;DHT22;24349;53.720;10.014;2022-11-21T09:01:17;2.50;99.90
38582;DHT22;24349;53.720;10.014;2022-11-21T09:03:43;2.40;99.90
38582;DHT22;24349;53.720;10.014;2022-11-21T09:06:09;2.60;99.90
38582;DHT22;24349;53.720;10.014;2022-11-21T09:08:36;3.30;99.90
38582;DHT22;24349;53.720;10.014;2022-11-21T09:11:04;3.20;99.90
38582;DHT22;24349;53.720;10.014;2022-11-21T09:13:30;3.20;99.90
38582;DHT22;24349;53.720;10.014;2022-11-21T09:15:57;2.90;99.90
38582;DHT22;24349;53.720;10.014;2022-11-21T09:18:41;3.30;99.90
38582;DHT22;24349;53.720;10.014;2022-11-21T09:21:12;4.00;99.90
38582;DHT22;24349;53.720;10.014;2022-11-21T09:23:38;4.00;99.90
38582;DHT22;24349;53.720;10.014;2022-11-21T09:26:04;3.90;99.90
38582;DHT22;24349;53.720;10.014;2022-11-21T09:28:29;3.30;99.90
38582;DHT22;24349;53.720;10.014;2022-11-21T09:30:55;3.00;99.90
38582;DHT22;24349;53.720;10.014;2022-11-21T09:33:20;2.50;99.90
38582;DHT22;24349;53.720;10.014;2022-11-21T09:35:46;2.10;99.90
38582;DHT22;24349;53.720;10.014;2022-11-21T09:38:11;1.70;99.90
38582;DHT22;24349;53.720;10.014;2022-11-21T09:40:42;1.70;99.90
38582;DHT22;24349;53.720;10.014;2022-11-21T09:48:34;1.80;99.90
38582;DHT22;24349;53.720;10.014;2022-11-21T09:51:06;2.10;99.90
38582;DHT22;24349;53.720;10.014;2022-11-21T09:53:50;2.40;99.90
38582;DHT22;24349;53.720;10.014;2022-11-21T09:56:16;2.60;99.90
38582;DHT22;24349;53.720;10.014;2022-11-21T10:01:44;4.90;99.90
38582;DHT22;24349;53.720;10.014;2022-11-21T10:04:10;6.10;99.90
38582;DHT22;24349;53.720;10.014;2022-11-21T10:09:23;6.60;99.90
38582;DHT22;24349;53.720;10.014;2022-11-21T10:25:56;6.70;99.90
38582;DHT22;24349;53.720;10.014;2022-11-21T10:30:58;6.10;99.90
38582;DHT22;24349;53.720;10.014;2022-11-21T10:33:30;6.60;99.90
38582;DHT22;24349;53.720;10.014;2022-11-21T10:36:43;6.80;99.90
38582;DHT22;24349;53.720;10.014;2022-11-21T10:38:52;7.30;99.90
38582;DHT22;24349;53.720;10.014;2022-11-21T10:44:27;8.20;99.90
38582;DHT22;24349;53.720;10.014;2022-11-21T10:47:23;6.90;99.90
38582;DHT22;24349;53.720;10.014;2022-11-21T10:50:04;8.00;99.90
38582;DHT22;24349;53.720;10.014;2022-11-21T10:53:00;8.50;99.90
38582;DHT22;24349;53.720;10.014;2022-11-21T10:55:27;8.20;99.90
38582;DHT22;24349;53.720;10.014;2022-11-21T10:57:53;7.10;99.90
38582;DHT22;24349;53.720;10.014;2022-11-21T11:00:24;7.00;99.90
38582;DHT22;24349;53.720;10.014;2022-11-21T11:05:28;6.70;99.90
38582;DHT22;24349;53.720;10.014;2022-11-21T11:08:10;7.40;99.90
38582;DHT22;24349;53.720;10.014;2022-11-21T11:10:41;8.70;99.90
38582;DHT22;24349;53.720;10.014;2022-11-21T11:13:18;9.40;99.90
38582;DHT22;24349;53.720;10.014;2022-11-21T11:16:09;8.20;99.90
38582;DHT22;24349;53.720;10.014;2022-11-21T11:19:01;6.90;99.90
38582;DHT22;24349;53.720;10.014;2022-11-21T11:29:23;4.30;99.90
38582;DHT22;24349;53.720;10.014;2022-11-21T11:48:07;6.00;99.90
38582;DHT22;24349;53.720;10.014;2022-11-21T11:50:43;6.40;99.90
38582;DHT22;24349;53.720;10.014;2022-11-21T11:53:12;5.90;99.90
38582;DHT22;24349;53.720;10.014;2022-11-21T11:55:44;5.60;99.90
38582;DHT22;24349;53.720;10.014;2022-11-21T12:01:05;4.90;99.90
38582;DHT22;24349;53.720;10.014;2022-11-21T12:06:27;4.00;99.90
38582;DHT22;24349;53.720;10.014;2022-11-21T12:09:02;4.00;99.90
38582;DHT22;24349;53.720;10.014;2022-11-21T12:12:13;4.10;99.90
38582;DHT22;24349;53.720;10.014;2022-11-21T12:15:20;4.60;99.90
38582;DHT22;24349;53.720;10.014;2022-11-21T12:23:50;8.50;99.90
38582;DHT22;24349;53.720;10.014;2022-11-21T12:32:02;10.40;99.90
38582;DHT22;24349;53.720;10.014;2022-11-21T12:37:22;9.50;99.90
38582;DHT22;24349;53.720;10.014;2022-11-21T12:40:03;9.30;99.90
38582;DHT22;24349;53.720;10.014;2022-11-21T12:50:57;5.30;99.90
38582;DHT22;24349;53.720;10.014;2022-11-21T12:57:07;4.40;99.90
38582;DHT22;24349;53.720;10.014;2022-11-21T12:59:58;4.20;99.90
38582;DHT22;24349;53.720;10.014;2022-11-21T13:05:35;4.10;99.90
38582;DHT22;24349;53.720;10.014;2022-11-21T13:10:40;3.60;99.90
38582;DHT22;24349;53.720;10.014;2022-11-21T13:13:21;3.70;99.90
38582;DHT22;24349;53.720;10.014;2022-11-21T13:16:09;3.60;99.90
38582;DHT22;24349;53.720;10.014;2022-11-21T13:18:42;3.60;99.90
38582;DHT22;24349;53.720;10.014;2022-11-21T13:21:45;3.50;99.90
38582;DHT22;24349;53.720;10.014;2022-11-21T13:27:36;3.30;99.90
38582;DHT22;24349;53.720;10.014;2022-11-21T13:32:59;3.30;99.90
38582;DHT22;24349;53.720;10.014;2022-11-21T13:45:46;3.10;99.90
38582;DHT22;24349;53.720;10.014;2022-11-21T13:51:25;3.10;99.90
38582;DHT22;24349;53.720;10.014;2022-11-21T13:54:08;3.00;99.90
38582;DHT22;24349;53.720;10.014;2022-11-21T13:57:04;3.00;99.90
38582;DHT22;24349;53.720;10.014;2022-11-21T14:00:26;3.00;99.90
38582;DHT22;24349;53.720;10.014;2022-11-21T14:02:52;3.00;99.90
38582;DHT22;24349;53.720;10.014;2022-11-21T14:05:58;3.00;99.90
38582;DHT22;24349;53.720;10.014;2022-11-21T14:08:28;2.90;99.90
38582;DHT22;24349;53.720;10.014;2022-11-21T14:10:55;3.00;99.90
38582;DHT22;24349;53.720;10.014;2022-11-21T14:13:28;2.90;99.90
38582;DHT22;24349;53.720;10.014;2022-11-21T14:18:55;2.80;99.90
38582;DHT22;24349;53.720;10.014;2022-11-21T14:21:27;2.80;99.90
38582;DHT22;24349;53.720;10.014;2022-11-21T14:24:10;2.80;99.90
38582;DHT22;24349;53.720;10.014;2022-11-21T14:26:41;2.80;99.90
38582;DHT22;24349;53.720;10.014;2022-11-21T14:29:37;2.80;99.90
38582;DHT22;24349;53.720;10.014;2022-11-21T14:32:03;2.70;99.90
38582;DHT22;24349;53.720;10.014;2022-11-21T14:34:30;2.70;99.90
38582;DHT22;24349;53.720;10.014;2022-11-21T14:36:59;2.70;99.90
38582;DHT22;24349;53.720;10.014;2022-11-21T14:39:27;2.80;99.90
38582;DHT22;24349;53.720;10.014;2022-11-21T14:41:55;2.70;99.90
38582;DHT22;24349;53.720;10.014;2022-11-21T14:44:24;2.60;99.90
38582;DHT22;24349;53.720;10.014;2022-11-21T14:47:01;2.50;99.90
38582;DHT22;24349;53.720;10.014;2022-11-21T14:49:27;2.60;99.90
38582;DHT22;24349;53.720;10.014;2022-11-21T14:52:14;2.40;99.90
38582;DHT22;24349;53.720;10.014;2022-11-21T14:54:49;2.40;99.90
38582;DHT22;24349;53.720;10.014;2022-11-21T14:57:41;2.30;99.90
38582;DHT22;24349;53.720;10.014;2022-11-21T15:00:10;2.30;99.90
38582;DHT22;24349;53.720;10.014;2022-11-21T15:02:37;2.20;99.90
38582;DHT22;24349;53.720;10.014;2022-11-21T15:05:05;2.00;99.90
38582;DHT22;24349;53.720;10.014;2022-11-21T15:07:39;1.90;99.90
38582;DHT22;24349;53.720;10.014;2022-11-21T15:10:10;1.80;99.90
38582;DHT22;24349;53.720;10.014;2022-11-21T15:12:51;1.70;99.90
38582;DHT22;24349;53.720;10.014;2022-11-21T15:17:56;1.60;99.90
38582;DHT22;24349;53.720;10.014;2022-11-21T15:20:23;1.60;99.90
38582;DHT22;24349;53.720;10.014;2022-11-21T15:22:52;1.50;99.90
38582;DHT22;24349;53.720;10.014;2022-11-21T15:25:20;1.40;99.90
38582;DHT22;24349;53.720;10.014;2022-11-21T15:27:50;1.40;99.90
38582;DHT22;24349;53.720;10.014;2022-11-21T15:38:29;1.20;99.90
38582;DHT22;24349;53.720;10.014;2022-11-21T15:48:43;1.20;99.90
38582;DHT22;24349;53.720;10.014;2022-11-21T15:51:10;1.20;99.90
38582;DHT22;24349;53.720;10.014;2022-11-21T15:53:37;1.10;99.90
38582;DHT22;24349;53.720;10.014;2022-11-21T15:56:04;1.00;99.90
38582;DHT22;24349;53.720;10.014;2022-11-21T15:58:29;1.10;99.90
38582;DHT22;24349;53.720;10.014;2022-11-21T16:00:55;1.10;99.90
38582;DHT22;24349;53.720;10.014;2022-11-21T16:03:21;1.00;99.90
38582;DHT22;24349;53.720;10.014;2022-11-21T16:05:47;1.00;99.90
38582;DHT22;24349;53.720;10.014;2022-11-21T16:08:12;0.90;99.90
38582;DHT22;24349;53.720;10.014;2022-11-21T16:10:38;0.90;99.90
38582;DHT22;24349;53.720;10.014;2022-11-21T16:13:03;0.80;99.90
38582;DHT22;24349;53.720;10.014;2022-11-21T16:15:29;0.70;99.90
38582;DHT22;24349;53.720;10.014;2022-11-21T16:17:55;0.70;99.90
38582;DHT22;24349;53.720;10.014;2022-11-21T16:20:21;0.60;99.90
38582;DHT22;24349;53.720;10.014;2022-11-21T16:22:46;0.60;99.90
38582;DHT22;24349;53.720;10.014;2022-11-21T16:25:12;0.50;99.90
38582;DHT22;24349;53.720;10.014;2022-11-21T16:27:38;0.50;99.90
38582;DHT22;24349;53.720;10.014;2022-11-21T16:30:03;0.50;99.90
38582;DHT22;24349;53.720;10.014;2022-11-21T16:32:29;0.40;99.90
38582;DHT22;24349;53.720;10.014;2022-11-21T16:34:55;0.40;99.90
38582;DHT22;24349;53.720;10.014;2022-11-21T16:37:22;0.40;99.90
38582;DHT22;24349;53.720;10.014;2022-11-21T16:39:48;0.40;99.90
38582;DHT22;24349;53.720;10.014;2022-11-21T16:42:17;0.40;99.90
38582;DHT22;24349;53.720;10.014;2022-11-21T16:44:43;0.30;99.90
38582;DHT22;24349;53.720;10.014;2022-11-21T16:47:09;0.30;99.90
38582;DHT22;24349;53.720;10.014;2022-11-21T16:49:35;0.30;99.90
38582;DHT22;24349;53.720;10.014;2022-11-21T16:52:01;0.30;99.90
38582;DHT22;24349;53.720;10.014;2022-11-21T16:54:27;0.20;99.90
38582;DHT22;24349;53.720;10.014;2022-11-21T16:56:52;0.20;99.90
38582;DHT22;24349;53.720;10.014;2022-11-21T16:59:18;0.20;99.90
38582;DHT22;24349;53.720;10.014;2022-11-21T17:01:43;0.20;99.90
38582;DHT22;24349;53.720;10.014;2022-11-21T17:04:09;0.10;99.90
38582;DHT22;24349;53.720;10.014;2022-11-21T17:06:35;0.00;99.90
38582;DHT22;24349;53.720;10.014;2022-11-21T17:09:01;0.00;99.90
38582;DHT22;24349;53.720;10.014;2022-11-21T17:11:28;0.00;99.90
38582;DHT22;24349;53.720;10.014;2022-11-21T17:13:59;-0.10;99.90
38582;DHT22;24349;53.720;10.014;2022-11-21T17:16:25;-0.10;99.90
38582;DHT22;24349;53.720;10.014;2022-11-21T17:18:55;-0.10;99.90
38582;DHT22;24349;53.720;10.014;2022-11-21T17:21:22;-0.10;99.90
38582;DHT22;24349;53.720;10.014;2022-11-21T17:23:48;-0.10;99.90
38582;DHT22;24349;53.720;10.014;2022-11-21T17:26:16;-0.20;99.90
38582;DHT22;24349;53.720;10.014;2022-11-21T17:28:43;-0.20;99.90
38582;DHT22;24349;53.720;10.014;2022-11-21T17:31:12;-0.20;99.90
38582;DHT22;24349;53.720;10.014;2022-11-21T17:33:38;-0.20;99.90
38582;DHT22;24349;53.720;10.014;2022-11-21T17:36:11;-0.20;99.90
38582;DHT22;24349;53.720;10.014;2022-11-21T17:38:37;-0.30;99.90
38582;DHT22;24349;53.720;10.014;2022-11-21T17:41:05;-0.30;99.90
38582;DHT22;24349;53.720;10.014;2022-11-21T17:43:32;-0.30;99.90
38582;DHT22;24349;53.720;10.014;2022-11-21T17:46:03;-0.30;99.90
38582;DHT22;24349;53.720;10.014;2022-11-21T17:48:32;-0.40;99.90
38582;DHT22;24349;53.720;10.014;2022-11-21T17:53:24;-0.30;99.90
38582;DHT22;24349;53.720;10.014;2022-11-21T17:55:56;-0.20;99.90
38582;DHT22;24349;53.720;10.014;2022-11-21T17:58:22;-0.30;99.90
38582;DHT22;24349;53.720;10.014;2022-11-21T18:00:56;-0.30;99.90
38582;DHT22;24349;53.720;10.014;2022-11-21T18:03:22;-0.30;99.90
38582;DHT22;24349;53.720;10.014;2022-11-21T18:05:48;-0.40;99.90